Godman Army Air Field
KFTK : now visible

Airfield :











YOU CAN JOIN US ON...

 
LOGIN :

Register | Disclaimer

   EN    FR    IT 

 









Legend :    VFR   Marginal VFR   IFR   Intensive IFR   Very Intensive IFR
Visi :
Ceiling :
>= 8 km
>= 3000ft
5 to 8 km
1000 to 3000 ft
1500m to 5 km
500 to 1000 ft
800 to 1500m
200 to 500 ft
< 800m
< 200 ft
Symbols :   Thunderstorms  Fog  Heavy snow  Heavy precipitations  Wind > 20 kt







- Airport Elevation : 756 ft


KFTK - Godman Army Air Field

CURRENT METAR :
  • 201956Z AUTO 24007KT 10SM FEW050 32/17 A3016 RMK AO2 SLP209 T03180173 $

EXPIRED METARs :
  • 201856Z AUTO 20008KT 10SM CLR 31/17 A3018 RMK AO2 SLP215 T03090172 $
  • 201833Z AUTO 18010G15KT 10SM CLR 30/17 A3018 RMK AO2 SLP216 $
  • 201756Z AUTO 21004KT 10SM SCT046 30/17 A3020 RMK AO2 SLP223 60001 T02990166 10299 20194 58009

TAF TAF KFTK
Valid from the 20 at 17:00 until the 21 at 23:00 UTC


201700Z 2017/2123 20006KT 9999 SCT050 QNH3016INS
BECMG 2114/2115 21012KT 9999 FEW050 SCT120 QNH3016INS TX31/2020Z TN19/2112Z
No reported NOTAMs for that airfield.



MET'MAP, your aeronautical weather chart ! - Copyright ORBIFLY December 2007 - Disclaimer

ORBIFLY MET'MAP TEAM :

Programming & Development : Alexandra Zaïnal
Concept & Development : Baudouin d'Aumeries
Co-Development & Prog : Marc-Olivier Méhu
Technical & hardware support : Manuel Goepfert

Contact : metmap@orbifly.com




SOURCES & CREDITS :

   NOAA       Earth
Advisory